createdAt,value
2022-10-07T00:01:12.351Z,11.73
2022-10-07T00:03:41.113Z,11.67
2022-10-07T00:06:14.276Z,11.62
2022-10-07T00:08:44.461Z,11.48
2022-10-07T00:11:14.647Z,11.50
2022-10-07T00:13:43.863Z,11.49
2022-10-07T00:16:13.748Z,11.46
2022-10-07T00:18:42.210Z,11.45
2022-10-07T00:21:12.167Z,11.44
2022-10-07T00:23:42.966Z,11.40
2022-10-07T00:26:14.083Z,11.42
2022-10-07T00:28:43.266Z,11.47
2022-10-07T00:31:14.991Z,11.39
2022-10-07T00:33:43.582Z,11.36
2022-10-07T00:36:16.178Z,11.31
2022-10-07T00:38:45.509Z,11.27
2022-10-07T00:41:20.052Z,11.19
2022-10-07T00:43:49.184Z,11.16
2022-10-07T00:46:26.788Z,11.08
2022-10-07T00:48:55.200Z,11.07
2022-10-07T00:51:23.655Z,11.06
2022-10-07T00:53:54.960Z,11.02
2022-10-07T00:56:24.701Z,11.10
2022-10-07T00:58:52.921Z,11.05
2022-10-07T01:01:22.008Z,10.99
2022-10-07T01:03:50.230Z,10.88
2022-10-07T01:06:18.917Z,10.86
2022-10-07T01:08:48.541Z,10.84
2022-10-07T01:11:33.516Z,10.84
2022-10-07T01:14:08.046Z,10.74
2022-10-07T01:16:45.274Z,10.92
2022-10-07T01:19:34.949Z,10.83
2022-10-07T01:22:15.837Z,10.77
2022-10-07T01:24:50.744Z,10.73
2022-10-07T01:27:23.177Z,10.66
2022-10-07T01:29:56.146Z,10.62
2022-10-07T01:32:32.443Z,10.63
2022-10-07T01:35:02.795Z,10.61
2022-10-07T01:37:35.958Z,10.58
2022-10-07T01:40:08.482Z,10.51
2022-10-07T01:42:38.712Z,10.51
2022-10-07T01:45:11.229Z,10.50
2022-10-07T01:47:40.323Z,10.47
2022-10-07T01:50:13.329Z,10.32
2022-10-07T01:52:53.657Z,10.21
2022-10-07T01:55:38.332Z,10.07
2022-10-07T01:58:21.538Z,10.00
2022-10-07T02:00:56.157Z,9.97
2022-10-07T02:03:35.639Z,9.86
2022-10-07T02:06:11.862Z,9.82
2022-10-07T02:08:45.459Z,9.58
2022-10-07T02:11:16.085Z,9.58
2022-10-07T02:13:55.810Z,9.59
2022-10-07T02:16:30.101Z,9.56
2022-10-07T02:19:02.508Z,9.60
2022-10-07T02:21:36.436Z,9.62
2022-10-07T02:24:05.285Z,9.54
2022-10-07T02:26:35.814Z,9.64
2022-10-07T02:29:07.839Z,9.62
2022-10-07T02:31:38.497Z,9.48
2022-10-07T02:34:10.559Z,9.44
2022-10-07T02:36:42.371Z,9.35
2022-10-07T02:39:10.412Z,9.43
2022-10-07T02:41:45.593Z,9.43
2022-10-07T02:44:25.815Z,9.35
2022-10-07T02:46:58.934Z,9.30
2022-10-07T02:49:30.838Z,9.31
2022-10-07T02:52:02.649Z,9.24
2022-10-07T02:54:35.712Z,9.29
2022-10-07T02:57:05.189Z,9.20
2022-10-07T02:59:37.590Z,9.16
2022-10-07T03:02:09.786Z,9.28
2022-10-07T03:04:38.359Z,9.27
2022-10-07T03:07:06.150Z,9.23
2022-10-07T03:09:33.930Z,9.19
2022-10-07T03:12:02.081Z,9.26
2022-10-07T03:14:29.999Z,9.20
2022-10-07T03:16:59.125Z,9.21
2022-10-07T03:19:27.125Z,9.11
2022-10-07T03:21:55.046Z,8.98
2022-10-07T03:24:22.750Z,8.97
2022-10-07T03:26:51.039Z,9.02
2022-10-07T03:29:19.574Z,9.09
2022-10-07T03:31:47.452Z,9.05
2022-10-07T03:34:17.048Z,8.90
2022-10-07T03:36:45.436Z,8.79
2022-10-07T03:39:13.352Z,8.66
2022-10-07T03:41:42.155Z,8.67
2022-10-07T03:44:09.927Z,8.65
2022-10-07T03:46:37.791Z,8.65
2022-10-07T03:49:05.723Z,8.64
2022-10-07T03:51:36.041Z,8.70
2022-10-07T03:54:04.062Z,8.65
2022-10-07T03:56:32.124Z,8.67
2022-10-07T03:59:00.181Z,8.56
2022-10-07T04:01:31.520Z,8.45
2022-10-07T04:04:01.042Z,8.32
2022-10-07T04:06:30.032Z,8.33
2022-10-07T04:08:59.140Z,8.16
2022-10-07T04:11:27.123Z,8.02
2022-10-07T04:13:55.576Z,7.88
2022-10-07T04:16:23.489Z,7.86
2022-10-07T04:18:55.654Z,7.79
2022-10-07T04:21:23.628Z,7.75
2022-10-07T04:23:51.423Z,7.71
2022-10-07T04:26:20.761Z,7.66
2022-10-07T04:28:50.028Z,7.57
2022-10-07T04:31:17.896Z,7.62
2022-10-07T04:33:46.471Z,7.57
2022-10-07T04:36:14.440Z,7.55
2022-10-07T04:38:44.228Z,7.61
2022-10-07T04:41:12.064Z,7.52
2022-10-07T04:43:41.403Z,7.46
2022-10-07T04:46:13.557Z,7.46
2022-10-07T04:48:44.210Z,7.47
2022-10-07T04:51:12.392Z,7.52
2022-10-07T04:53:41.568Z,7.54
2022-10-07T04:56:11.209Z,7.56
2022-10-07T04:58:39.136Z,7.48
2022-10-07T05:01:11.366Z,7.46
2022-10-07T05:03:41.074Z,7.52
2022-10-07T05:06:09.916Z,7.50
2022-10-07T05:08:38.226Z,7.49
2022-10-07T05:11:06.182Z,7.48
2022-10-07T05:13:34.254Z,7.45
2022-10-07T05:16:03.349Z,7.42
2022-10-07T05:18:35.613Z,7.50
2022-10-07T05:21:05.547Z,7.68
2022-10-07T05:23:35.730Z,7.65
2022-10-07T05:26:08.133Z,7.78
2022-10-07T05:28:36.506Z,7.93
2022-10-07T05:31:09.345Z,7.90
2022-10-07T05:33:39.489Z,7.95
2022-10-07T05:36:08.970Z,8.02
2022-10-07T05:38:37.121Z,8.24
2022-10-07T05:41:07.121Z,8.20
2022-10-07T05:43:37.869Z,8.35
2022-10-07T05:46:07.503Z,8.34
2022-10-07T05:48:39.372Z,8.34
2022-10-07T05:51:09.612Z,8.48
2022-10-07T05:53:41.053Z,8.48
2022-10-07T05:56:10.996Z,8.61
2022-10-07T05:58:39.053Z,8.71
2022-10-07T06:01:13.781Z,8.87
2022-10-07T06:03:42.648Z,8.88
2022-10-07T06:06:11.862Z,8.96
2022-10-07T06:08:39.792Z,9.04
2022-10-07T06:11:37.237Z,9.12
2022-10-07T06:14:05.824Z,9.13
2022-10-07T06:16:34.085Z,9.13
2022-10-07T06:19:02.366Z,9.26
2022-10-07T06:21:31.581Z,9.32
2022-10-07T06:23:59.639Z,9.44
2022-10-07T06:26:27.844Z,9.53
2022-10-07T06:28:55.721Z,9.62
2022-10-07T06:31:25.554Z,9.78
2022-10-07T06:33:55.188Z,9.73
2022-10-07T06:36:23.545Z,9.87
2022-10-07T06:38:54.941Z,9.96
2022-10-07T06:41:23.968Z,10.01
2022-10-07T06:43:56.095Z,10.19
2022-10-07T06:46:24.527Z,10.24
2022-10-07T06:48:52.598Z,10.36
2022-10-07T06:51:21.989Z,10.32
2022-10-07T06:53:54.817Z,10.35
2022-10-07T06:56:24.488Z,10.37
2022-10-07T06:58:52.394Z,10.49
2022-10-07T07:01:20.262Z,10.66
2022-10-07T07:03:48.672Z,10.77
2022-10-07T07:06:16.728Z,10.86
2022-10-07T07:08:45.866Z,11.14
2022-10-07T07:11:33.170Z,11.21
2022-10-07T07:14:01.934Z,11.41
2022-10-07T07:16:30.060Z,11.52
2022-10-07T07:18:59.989Z,11.72
2022-10-07T07:21:28.890Z,11.94
2022-10-07T07:23:58.526Z,12.09
2022-10-07T07:26:28.596Z,12.13
2022-10-07T07:28:59.269Z,12.22
2022-10-07T07:31:28.910Z,12.47
2022-10-07T07:33:56.941Z,12.60
2022-10-07T07:36:26.630Z,12.78
2022-10-07T07:38:55.903Z,12.95
2022-10-07T07:41:47.885Z,13.08
2022-10-07T07:44:19.461Z,13.29
2022-10-07T07:46:51.164Z,13.41
2022-10-07T07:49:20.049Z,13.53
2022-10-07T07:51:47.754Z,13.62
2022-10-07T07:54:16.426Z,13.71
2022-10-07T07:56:44.832Z,13.84
2022-10-07T07:59:13.080Z,13.99
2022-10-07T08:01:44.142Z,14.19
2022-10-07T08:04:13.229Z,14.32
2022-10-07T08:06:41.024Z,14.44
2022-10-07T08:09:09.554Z,14.46
2022-10-07T08:11:37.454Z,14.75
2022-10-07T08:14:07.853Z,14.80
2022-10-07T08:16:37.003Z,14.86
2022-10-07T08:19:06.256Z,15.05
2022-10-07T08:21:34.278Z,15.23
2022-10-07T08:24:04.518Z,15.38
2022-10-07T08:26:34.660Z,15.58
2022-10-07T08:29:02.701Z,15.77
2022-10-07T08:31:30.974Z,15.87
2022-10-07T08:34:01.015Z,15.93
2022-10-07T08:36:32.720Z,16.03
2022-10-07T08:39:02.143Z,16.04
2022-10-07T08:41:55.414Z,16.36
2022-10-07T08:44:29.497Z,16.55
2022-10-07T08:47:02.833Z,16.62
2022-10-07T08:49:49.369Z,16.82
2022-10-07T08:52:29.864Z,16.90
2022-10-07T08:54:59.223Z,17.12
2022-10-07T08:57:39.030Z,17.17
2022-10-07T09:00:09.141Z,17.29
2022-10-07T09:02:48.873Z,17.21
2022-10-07T09:05:22.101Z,17.39
2022-10-07T09:07:54.912Z,17.44
2022-10-07T09:10:32.370Z,17.51
2022-10-07T09:13:04.690Z,17.70
2022-10-07T09:15:40.452Z,17.98
2022-10-07T09:18:17.686Z,18.26
2022-10-07T09:20:53.373Z,18.37
2022-10-07T09:23:25.439Z,18.48
2022-10-07T09:25:53.338Z,17.98
2022-10-07T09:28:30.482Z,18.28
2022-10-07T09:31:00.251Z,18.68
2022-10-07T09:33:29.741Z,18.99
2022-10-07T09:35:59.754Z,19.08
2022-10-07T09:38:36.137Z,19.24
2022-10-07T09:41:16.941Z,19.52
2022-10-07T09:43:57.369Z,19.31
2022-10-07T09:46:36.693Z,19.48
2022-10-07T09:49:07.244Z,19.10
2022-10-07T09:51:35.401Z,18.63
2022-10-07T09:54:07.229Z,19.01
2022-10-07T09:56:39.301Z,19.40
2022-10-07T09:59:22.776Z,19.70
2022-10-07T10:01:52.820Z,19.41
2022-10-07T10:04:29.164Z,19.37
2022-10-07T10:07:02.148Z,19.73
2022-10-07T10:09:33.845Z,20.27
2022-10-07T10:12:07.187Z,20.46
2022-10-07T10:14:43.727Z,20.81
2022-10-07T10:17:23.777Z,21.32
2022-10-07T10:19:51.891Z,21.55
2022-10-07T10:22:27.890Z,21.71
2022-10-07T10:25:15.882Z,21.99
2022-10-07T10:27:55.340Z,22.44
2022-10-07T10:30:24.756Z,22.60
2022-10-07T10:33:20.120Z,22.90
2022-10-07T10:35:57.145Z,23.35
2022-10-07T10:38:46.922Z,23.51
2022-10-07T10:41:25.677Z,23.71
2022-10-07T10:44:19.849Z,23.75
2022-10-07T10:46:56.059Z,23.93
2022-10-07T10:49:30.483Z,23.93
2022-10-07T10:52:15.223Z,23.86
2022-10-07T10:54:58.190Z,23.98
2022-10-07T10:57:41.609Z,24.11
2022-10-07T11:00:13.725Z,24.38
2022-10-07T11:02:59.332Z,24.46
2022-10-07T11:05:31.967Z,24.64
2022-10-07T11:08:05.365Z,24.80
2022-10-07T11:10:38.588Z,25.04
2022-10-07T11:13:27.380Z,25.09
2022-10-07T11:16:00.682Z,25.11
2022-10-07T11:18:35.613Z,25.52
2022-10-07T11:21:07.876Z,25.59
2022-10-07T11:23:45.801Z,25.48
2022-10-07T11:26:22.117Z,25.43
2022-10-07T11:28:52.950Z,26.02
2022-10-07T11:31:32.333Z,25.90
2022-10-07T11:34:14.933Z,26.08
2022-10-07T11:36:50.541Z,25.55
2022-10-07T11:39:18.790Z,25.14
2022-10-07T11:41:55.826Z,24.87
2022-10-07T11:44:31.070Z,24.69
2022-10-07T11:47:02.854Z,24.57
2022-10-07T11:49:36.313Z,24.80
2022-10-07T11:52:06.829Z,25.19
2022-10-07T11:54:42.208Z,24.80
2022-10-07T11:57:21.370Z,24.99
2022-10-07T11:59:53.081Z,24.90
2022-10-07T12:02:45.122Z,25.55
2022-10-07T12:06:02.414Z,25.36
2022-10-07T12:08:32.944Z,25.52
2022-10-07T12:11:42.693Z,25.41
2022-10-07T12:14:41.934Z,25.42
2022-10-07T12:17:30.157Z,24.78
2022-10-07T12:20:37.168Z,24.14
2022-10-07T12:23:49.777Z,23.70
2022-10-07T12:26:52.062Z,23.52
2022-10-07T12:29:23.745Z,23.50
2022-10-07T12:31:51.958Z,23.12
2022-10-07T12:34:34.813Z,23.50
2022-10-07T12:37:41.109Z,23.24
2022-10-07T12:40:19.254Z,23.26
2022-10-07T12:42:55.392Z,23.21
2022-10-07T12:45:26.428Z,23.05
2022-10-07T12:47:58.631Z,22.84
2022-10-07T12:50:31.687Z,22.86
2022-10-07T12:53:03.431Z,22.99
2022-10-07T12:55:32.861Z,22.87
2022-10-07T12:58:15.762Z,22.74
2022-10-07T13:00:52.867Z,22.58
2022-10-07T13:03:41.686Z,22.32
2022-10-07T13:06:46.225Z,22.27
2022-10-07T13:09:48.377Z,22.33
2022-10-07T13:12:32.450Z,22.13
2022-10-07T13:15:11.802Z,21.97
2022-10-07T13:17:48.201Z,21.92
2022-10-07T13:20:36.022Z,21.80
2022-10-07T13:23:12.726Z,21.76
2022-10-07T13:25:49.237Z,21.67
2022-10-07T13:28:22.291Z,21.75
2022-10-07T13:30:51.881Z,21.63
2022-10-07T13:33:24.738Z,21.40
2022-10-07T13:35:53.601Z,21.46
2022-10-07T13:38:23.670Z,21.53
2022-10-07T13:41:02.052Z,21.44
2022-10-07T13:43:32.177Z,21.49
2022-10-07T13:46:02.794Z,21.42
2022-10-07T13:48:35.202Z,21.37
2022-10-07T13:51:03.826Z,21.21
2022-10-07T13:53:35.307Z,21.23
2022-10-07T13:56:16.854Z,21.21
2022-10-07T13:58:46.454Z,21.14
2022-10-07T14:01:14.975Z,21.08
2022-10-07T14:04:03.791Z,21.01
2022-10-07T14:06:38.727Z,21.06
2022-10-07T14:12:18.609Z,21.03
2022-10-07T14:14:48.993Z,20.96
2022-10-07T14:17:35.301Z,21.02
2022-10-07T14:20:07.516Z,20.91
2022-10-07T14:22:38.949Z,20.99
2022-10-07T14:25:17.744Z,21.02
2022-10-07T14:28:04.635Z,20.97
2022-10-07T14:30:53.291Z,20.93
2022-10-07T14:33:48.408Z,21.05
2022-10-07T14:36:25.647Z,21.02
2022-10-07T14:38:58.038Z,20.97
2022-10-07T14:41:28.825Z,21.02
2022-10-07T14:44:00.106Z,21.10
2022-10-07T14:46:29.206Z,21.02
2022-10-07T14:48:57.010Z,21.01
2022-10-07T14:51:28.774Z,20.91
2022-10-07T14:54:01.720Z,20.83
2022-10-07T14:56:32.210Z,20.83
2022-10-07T14:59:01.743Z,20.79
2022-10-07T15:01:30.044Z,20.78
2022-10-07T15:03:58.370Z,20.77
2022-10-07T15:06:26.779Z,20.77
2022-10-07T15:08:54.468Z,20.82
2022-10-07T15:11:22.767Z,20.57
2022-10-07T15:13:50.953Z,20.67
2022-10-07T15:16:22.898Z,20.66
2022-10-07T15:18:53.001Z,20.68
2022-10-07T15:21:23.005Z,20.53
2022-10-07T15:23:52.492Z,20.49
2022-10-07T15:26:24.016Z,20.11
2022-10-07T15:28:55.014Z,19.85
2022-10-07T15:31:26.584Z,19.68
2022-10-07T15:33:57.021Z,19.59
2022-10-07T15:36:26.610Z,19.45
2022-10-07T15:38:54.514Z,19.18
2022-10-07T15:41:34.603Z,19.15
2022-10-07T15:44:05.662Z,19.05
2022-10-07T15:46:35.431Z,19.00
2022-10-07T15:49:04.454Z,18.81
2022-10-07T15:51:32.866Z,18.81
2022-10-07T15:54:00.926Z,18.71
2022-10-07T15:56:28.880Z,18.62
2022-10-07T15:58:58.435Z,18.51
2022-10-07T16:01:28.208Z,18.40
2022-10-07T16:03:58.522Z,18.26
2022-10-07T16:06:31.277Z,18.14
2022-10-07T16:09:00.693Z,18.16
2022-10-07T16:11:29.950Z,18.10
2022-10-07T16:14:01.802Z,18.10
2022-10-07T16:16:32.318Z,17.97
2022-10-07T16:19:02.616Z,17.85
2022-10-07T16:21:32.934Z,17.80
2022-10-07T16:24:04.028Z,17.70
2022-10-07T16:26:34.370Z,17.47
2022-10-07T16:29:21.114Z,17.54
2022-10-07T16:31:54.511Z,17.39
2022-10-07T16:34:25.332Z,17.41
2022-10-07T16:36:54.030Z,17.22
2022-10-07T16:39:22.673Z,17.23
2022-10-07T16:41:52.247Z,17.18
2022-10-07T16:44:21.478Z,17.10
2022-10-07T16:46:49.706Z,17.08
2022-10-07T16:49:19.053Z,16.98
2022-10-07T16:51:48.525Z,16.81
2022-10-07T16:54:18.117Z,16.75
2022-10-07T16:56:50.888Z,16.69
2022-10-07T16:59:23.209Z,16.60
2022-10-07T17:01:55.579Z,16.53
2022-10-07T17:04:24.407Z,16.35
2022-10-07T17:06:54.030Z,16.36
2022-10-07T17:09:24.512Z,16.36
2022-10-07T17:11:52.862Z,16.33
2022-10-07T17:14:22.792Z,16.27
2022-10-07T17:16:52.446Z,16.13
2022-10-07T17:19:22.245Z,15.98
2022-10-07T17:21:51.248Z,15.94
2022-10-07T17:24:22.374Z,15.79
2022-10-07T17:26:52.385Z,15.60
2022-10-07T17:29:21.476Z,15.67
2022-10-07T17:31:50.612Z,15.54
2022-10-07T17:34:21.881Z,15.43
2022-10-07T17:36:50.296Z,15.21
2022-10-07T17:39:20.036Z,15.04
2022-10-07T17:41:48.693Z,15.01
2022-10-07T17:44:17.942Z,14.99
2022-10-07T17:46:48.825Z,15.00
2022-10-07T17:49:16.940Z,15.00
2022-10-07T17:51:45.105Z,15.08
2022-10-07T17:54:15.953Z,14.94
2022-10-07T17:56:47.520Z,14.96
2022-10-07T17:59:15.542Z,14.88
2022-10-07T18:01:44.637Z,14.92
2022-10-07T18:04:17.946Z,14.91
2022-10-07T18:06:49.182Z,14.94
2022-10-07T18:09:53.986Z,14.83
2022-10-07T18:15:30.656Z,14.94
2022-10-07T18:17:58.969Z,14.97
2022-10-07T18:20:28.409Z,14.90
2022-10-07T18:22:57.386Z,14.81
2022-10-07T18:25:26.069Z,14.71
2022-10-07T18:27:55.203Z,14.80
2022-10-07T18:30:23.097Z,14.67
2022-10-07T18:32:51.314Z,14.84
2022-10-07T18:35:19.586Z,14.76
2022-10-07T18:37:49.377Z,14.76
2022-10-07T18:40:17.422Z,14.65
2022-10-07T18:42:45.710Z,14.58
2022-10-07T18:45:14.882Z,14.59
2022-10-07T18:47:42.954Z,14.54
2022-10-07T18:50:11.170Z,14.34
2022-10-07T18:52:38.859Z,14.30
2022-10-07T18:55:07.407Z,14.30
2022-10-07T18:57:35.412Z,14.12
2022-10-07T19:00:03.581Z,14.01
2022-10-07T19:02:33.862Z,13.85
2022-10-07T19:05:01.927Z,13.69
2022-10-07T19:07:31.059Z,13.72
2022-10-07T19:09:58.846Z,13.71
2022-10-07T19:12:45.211Z,13.59
2022-10-07T19:15:13.269Z,13.44
2022-10-07T19:17:42.577Z,13.38
2022-10-07T19:20:11.157Z,13.37
2022-10-07T19:22:38.986Z,13.34
2022-10-07T19:25:25.561Z,13.32
2022-10-07T19:27:53.303Z,13.34
2022-10-07T19:30:21.309Z,13.34
2022-10-07T19:32:52.239Z,13.27
2022-10-07T19:35:20.049Z,13.13
2022-10-07T19:37:48.802Z,13.08
2022-10-07T19:40:17.314Z,13.21
2022-10-07T19:42:45.206Z,13.15
2022-10-07T19:45:14.223Z,13.10
2022-10-07T19:47:41.934Z,12.84
2022-10-07T19:50:11.596Z,12.94
2022-10-07T19:52:39.399Z,12.92
2022-10-07T19:55:08.509Z,12.73
2022-10-07T19:57:37.364Z,12.66
2022-10-07T20:00:06.174Z,12.52
2022-10-07T20:02:34.159Z,12.52
2022-10-07T20:05:02.064Z,12.49
2022-10-07T20:08:10.142Z,12.48
2022-10-07T20:10:54.410Z,12.34
2022-10-07T20:13:24.086Z,12.34
2022-10-07T20:15:52.102Z,12.41
2022-10-07T20:18:20.175Z,12.42
2022-10-07T20:20:48.234Z,12.43
2022-10-07T20:23:16.261Z,12.35
2022-10-07T20:25:46.371Z,12.37
2022-10-07T20:28:15.583Z,12.36
2022-10-07T20:30:43.592Z,12.27
2022-10-07T20:33:12.016Z,12.09
2022-10-07T20:35:40.135Z,12.08
2022-10-07T20:38:07.837Z,12.12
2022-10-07T20:40:53.137Z,11.94
2022-10-07T20:43:22.574Z,11.83
2022-10-07T20:45:57.364Z,11.93
2022-10-07T20:48:28.718Z,11.80
2022-10-07T20:50:56.615Z,11.93
2022-10-07T20:53:24.835Z,11.89
2022-10-07T20:55:52.686Z,11.92
2022-10-07T20:58:22.002Z,11.77
2022-10-07T21:00:49.767Z,11.85
2022-10-07T21:03:18.223Z,11.85
2022-10-07T21:05:46.313Z,11.82
2022-10-07T21:08:15.449Z,11.90
2022-10-07T21:10:43.265Z,11.76
2022-10-07T21:13:11.117Z,11.60
2022-10-07T21:15:40.722Z,11.60
2022-10-07T21:18:08.528Z,11.49
2022-10-07T21:20:36.789Z,11.48
2022-10-07T21:23:04.534Z,11.44
2022-10-07T21:25:33.852Z,11.34
2022-10-07T21:28:01.668Z,11.32
2022-10-07T21:30:29.580Z,11.31
2022-10-07T21:32:59.510Z,11.29
2022-10-07T21:35:27.253Z,11.31
2022-10-07T21:37:54.975Z,11.27
2022-10-07T21:40:22.990Z,11.21
2022-10-07T21:42:50.722Z,11.27
2022-10-07T21:45:18.482Z,11.36
2022-10-07T21:47:46.532Z,11.21
2022-10-07T21:50:15.837Z,11.28
2022-10-07T21:52:44.326Z,11.21
2022-10-07T21:55:12.529Z,11.02
2022-10-07T21:57:42.514Z,10.96
2022-10-07T22:00:12.212Z,10.76
2022-10-07T22:02:40.200Z,10.64
2022-10-07T22:05:08.875Z,10.74
2022-10-07T22:07:55.821Z,10.52
2022-10-07T22:10:23.807Z,10.66
2022-10-07T22:12:51.530Z,10.60
2022-10-07T22:15:20.067Z,10.83
2022-10-07T22:17:47.942Z,10.68
2022-10-07T22:20:15.695Z,10.73
2022-10-07T22:22:45.266Z,10.81
2022-10-07T22:25:13.345Z,10.90
2022-10-07T22:27:41.389Z,10.82
2022-10-07T22:30:10.496Z,10.77
2022-10-07T22:32:38.358Z,10.69
2022-10-07T22:35:25.064Z,10.61
2022-10-07T22:37:55.345Z,10.58
2022-10-07T22:40:23.177Z,10.46
2022-10-07T22:42:50.888Z,10.38
2022-10-07T22:45:19.650Z,10.47
2022-10-07T22:47:49.345Z,10.43
2022-10-07T22:50:17.264Z,10.33
2022-10-07T22:52:45.971Z,10.27
2022-10-07T22:55:16.709Z,10.23
2022-10-07T22:57:44.950Z,10.20
2022-10-07T23:00:14.387Z,10.11
2022-10-07T23:02:42.361Z,10.34
2022-10-07T23:05:10.791Z,10.36
2022-10-07T23:07:39.132Z,10.22
2022-10-07T23:10:08.357Z,10.31
2022-10-07T23:12:37.457Z,10.36
2022-10-07T23:15:06.456Z,10.29
2022-10-07T23:17:34.378Z,10.30
2022-10-07T23:20:03.098Z,10.17
2022-10-07T23:22:31.193Z,10.11
2022-10-07T23:24:58.897Z,10.04
2022-10-07T23:27:26.599Z,10.10
2022-10-07T23:29:56.013Z,10.26
2022-10-07T23:32:23.858Z,10.28
2022-10-07T23:34:51.641Z,10.29
2022-10-07T23:37:19.718Z,10.36
2022-10-07T23:39:48.582Z,10.32
2022-10-07T23:42:16.371Z,10.28
2022-10-07T23:44:44.753Z,10.17
2022-10-07T23:47:13.826Z,10.01
2022-10-07T23:49:41.705Z,9.89
2022-10-07T23:52:09.714Z,9.88
2022-10-07T23:54:37.509Z,9.80
2022-10-07T23:57:05.318Z,9.70
2022-10-07T23:59:33.381Z,9.64
